Time;durP1;ratioP1;P1;durP2;ratioP2;P2;SDS_P1;SDS_P2;PMS_P1;PMS_P2;Temp;Humidity;BMP_temperature;BMP_pressure;BME280_temperature;BME280_humidity;BME280_pressure;Samples;Min_cycle;Max_cycle;Signal;HPM_P1;HPM_P2
2022/03/14 00:02:21;;;;;;;5.35;1.00;;;22.30;99.90;;;;;;5080766;28;20010;-66
2022/03/14 00:04:49;;;;;;;8.25;1.23;;;22.30;99.90;;;;;;5087851;28;20017;-67
2022/03/14 00:07:16;;;;;;;10.68;1.00;;;22.30;99.90;;;;;;5080660;28;20025;-66
2022/03/14 00:09:44;;;;;;;6.75;1.10;;;22.30;99.90;;;;;;5083797;28;20041;-66
2022/03/14 00:12:15;;;;;;;7.43;1.33;;;22.30;99.90;;;;;;5084502;28;20005;-66
2022/03/14 00:14:42;;;;;;;6.45;0.82;;;22.20;99.90;;;;;;5081352;28;20031;-67
2022/03/14 00:17:10;;;;;;;6.97;0.80;;;22.20;99.90;;;;;;5086225;28;20005;-67
2022/03/14 00:19:38;;;;;;;5.18;0.90;;;22.20;99.90;;;;;;5089415;28;20012;-67
2022/03/14 00:22:06;;;;;;;4.38;1.00;;;22.10;99.90;;;;;;5085691;28;20029;-67
2022/03/14 00:24:34;;;;;;;6.07;1.08;;;22.10;99.90;;;;;;5086560;28;20088;-67
2022/03/14 00:27:02;;;;;;;3.47;0.55;;;22.10;99.90;;;;;;5081733;28;20010;-67
2022/03/14 00:29:29;;;;;;;4.07;0.40;;;22.10;99.90;;;;;;5084528;28;20040;-67
2022/03/14 00:31:58;;;;;;;4.85;0.60;;;22.10;99.90;;;;;;5086234;28;20012;-67
2022/03/14 00:34:25;;;;;;;4.50;0.60;;;22.20;99.90;;;;;;5080309;28;20035;-67
2022/03/14 00:36:52;;;;;;;7.05;0.80;;;22.20;99.90;;;;;;5085313;28;20043;-67
2022/03/14 00:39:20;;;;;;;15.63;1.60;;;22.20;99.90;;;;;;5087870;28;20017;-67
2022/03/14 00:41:47;;;;;;;3.58;0.93;;;22.20;99.90;;;;;;5088930;28;20068;-67
2022/03/14 00:44:17;;;;;;;4.88;1.13;;;22.10;99.90;;;;;;5083088;28;20045;-67
2022/03/14 00:46:45;;;;;;;6.07;0.80;;;22.00;99.90;;;;;;5082546;28;20014;-67
2022/03/14 00:49:13;;;;;;;4.10;0.50;;;22.00;99.90;;;;;;5087232;28;20029;-67
2022/03/14 00:51:40;;;;;;;4.20;0.40;;;22.00;99.90;;;;;;5087517;28;20036;-68
2022/03/14 00:54:09;;;;;;;6.65;0.95;;;22.00;99.90;;;;;;5079479;28;20028;-68
2022/03/14 00:56:36;;;;;;;5.72;0.63;;;22.10;99.90;;;;;;5084071;28;20031;-68
2022/03/14 00:59:03;;;;;;;2.45;1.15;;;22.10;99.90;;;;;;5085756;28;20013;-67
2022/03/14 01:01:31;;;;;;;4.20;0.60;;;22.10;99.90;;;;;;5087673;28;20047;-67
2022/03/14 01:03:59;;;;;;;6.95;0.65;;;22.30;99.90;;;;;;5085367;28;20025;-67
2022/03/14 01:06:27;;;;;;;4.22;0.40;;;22.90;99.90;;;;;;5083011;28;20081;-67
2022/03/14 01:08:55;;;;;;;3.22;0.40;;;23.30;99.90;;;;;;5080141;28;20025;-67
2022/03/14 01:11:22;;;;;;;4.82;0.70;;;23.80;99.90;;;;;;5083203;28;20009;-67
2022/03/14 01:13:49;;;;;;;3.65;0.50;;;23.90;99.90;;;;;;5081241;28;20025;-68
2022/03/14 01:16:17;;;;;;;4.65;0.85;;;23.80;99.90;;;;;;5080285;28;20044;-67
2022/03/14 01:18:44;;;;;;;3.63;0.50;;;23.40;99.90;;;;;;5079403;28;20024;-67
2022/03/14 01:21:11;;;;;;;5.38;0.52;;;23.00;99.90;;;;;;5079347;28;20039;-67
2022/03/14 01:23:38;;;;;;;6.22;0.75;;;22.60;99.90;;;;;;5078996;28;20009;-67
2022/03/14 01:26:08;;;;;;;4.70;0.68;;;22.50;99.90;;;;;;5081509;28;20092;-67
2022/03/14 01:28:35;;;;;;;3.90;0.75;;;22.50;99.90;;;;;;5078277;28;20035;-68
2022/03/14 01:31:04;;;;;;;4.13;0.70;;;22.40;99.90;;;;;;5078416;28;20039;-67
2022/03/14 01:33:31;;;;;;;2.63;0.30;;;22.50;99.90;;;;;;5088118;28;20036;-67
2022/03/14 01:35:58;;;;;;;2.70;0.50;;;22.30;99.90;;;;;;5081454;28;20025;-67
2022/03/14 01:38:26;;;;;;;6.88;0.80;;;22.30;99.90;;;;;;5081678;28;20023;-67
2022/03/14 01:40:53;;;;;;;2.50;0.75;;;22.20;99.90;;;;;;5082218;28;20024;-66
2022/03/14 01:43:26;;;;;;;5.97;1.25;;;22.20;99.90;;;;;;5098807;28;20020;-67
2022/03/14 01:45:59;;;;;;;4.22;0.85;;;22.40;99.90;;;;;;5081300;28;20042;-67
2022/03/14 01:48:27;;;;;;;2.30;0.52;;;22.50;99.90;;;;;;5088701;28;20033;-67
2022/03/14 01:50:54;;;;;;;4.50;0.77;;;22.60;99.90;;;;;;5079862;28;20020;-66
2022/03/14 01:53:22;;;;;;;3.22;0.32;;;22.40;99.90;;;;;;5078145;28;20108;-66
2022/03/14 01:55:50;;;;;;;5.32;0.50;;;22.40;99.90;;;;;;5079180;28;20024;-66
2022/03/14 01:58:21;;;;;;;4.63;0.60;;;22.30;99.90;;;;;;5089503;28;20137;-66
2022/03/14 02:00:48;;;;;;;5.72;0.50;;;22.30;99.90;;;;;;5082290;28;20048;-67
2022/03/14 02:03:16;;;;;;;2.75;0.30;;;22.10;99.90;;;;;;5081791;28;20016;-67
2022/03/14 02:05:44;;;;;;;2.05;0.32;;;21.80;99.90;;;;;;5085555;28;20017;-66
2022/03/14 02:08:11;;;;;;;4.68;0.68;;;21.60;99.90;;;;;;5091774;28;20013;-67
2022/03/14 02:10:38;;;;;;;2.25;0.28;;;21.70;99.90;;;;;;5083460;28;20035;-67
2022/03/14 02:13:09;;;;;;;4.18;0.90;;;21.70;99.90;;;;;;5078578;28;20036;-67
2022/03/14 02:15:38;;;;;;;2.55;0.40;;;21.60;99.90;;;;;;5077046;28;20063;-67
2022/03/14 02:18:06;;;;;;;5.80;0.90;;;21.60;99.90;;;;;;5090105;28;20048;-67
2022/03/14 02:20:34;;;;;;;4.18;0.60;;;21.60;99.90;;;;;;5084903;28;20020;-67
2022/03/14 02:23:02;;;;;;;4.03;0.50;;;21.40;99.90;;;;;;5084023;28;20017;-67
2022/03/14 02:25:29;;;;;;;3.95;0.50;;;21.40;99.90;;;;;;5086262;28;20036;-67
2022/03/14 02:27:56;;;;;;;1.80;0.30;;;21.40;99.90;;;;;;5087768;28;20024;-67
2022/03/14 02:30:24;;;;;;;4.32;0.50;;;21.10;99.90;;;;;;5077322;28;20021;-67
2022/03/14 02:32:51;;;;;;;3.17;1.02;;;21.10;99.90;;;;;;5093332;28;20037;-67
2022/03/14 02:35:18;;;;;;;5.32;1.25;;;21.10;99.90;;;;;;5085070;28;20039;-67
2022/03/14 02:37:46;;;;;;;5.50;0.90;;;20.90;99.90;;;;;;5077367;28;20035;-67
2022/03/14 02:40:13;;;;;;;2.33;0.40;;;20.90;99.90;;;;;;5076652;28;20017;-67
2022/03/14 02:42:41;;;;;;;4.55;0.90;;;20.90;99.90;;;;;;5083471;28;20029;-67
2022/03/14 02:45:09;;;;;;;5.57;1.77;;;20.80;99.90;;;;;;5087146;28;20025;-66
2022/03/14 02:47:37;;;;;;;7.07;0.88;;;20.50;99.90;;;;;;5084798;28;20021;-67
2022/03/14 02:50:05;;;;;;;7.55;0.90;;;20.40;99.90;;;;;;5077743;28;20040;-66
2022/03/14 02:52:32;;;;;;;2.05;0.75;;;20.30;99.90;;;;;;5077806;28;20029;-67
2022/03/14 02:54:59;;;;;;;2.05;0.52;;;20.20;99.90;;;;;;5090991;28;20032;-66
2022/03/14 02:57:28;;;;;;;6.18;0.73;;;20.00;99.90;;;;;;5085892;28;20052;-66
2022/03/14 02:59:56;;;;;;;1.85;0.40;;;20.00;99.90;;;;;;5077278;28;20005;-66
2022/03/14 03:02:25;;;;;;;2.50;0.30;;;19.90;99.90;;;;;;5078097;28;20088;-66
2022/03/14 03:04:53;;;;;;;2.05;0.68;;;19.60;99.90;;;;;;5086740;28;20044;-66
2022/03/14 03:07:20;;;;;;;1.25;0.40;;;19.50;99.90;;;;;;5076726;28;20025;-66
2022/03/14 03:09:47;;;;;;;5.20;0.68;;;19.30;99.90;;;;;;5076646;28;20037;-67
2022/03/14 03:12:15;;;;;;;6.82;1.10;;;19.30;99.90;;;;;;5079902;28;20016;-67
2022/03/14 03:14:43;;;;;;;3.75;0.98;;;19.40;99.90;;;;;;5074853;28;20063;-67
2022/03/14 03:17:10;;;;;;;6.53;0.75;;;19.20;99.90;;;;;;5070844;28;20539;-67
2022/03/14 03:19:37;;;;;;;4.30;1.08;;;19.10;99.90;;;;;;5072660;28;20033;-68
2022/03/14 03:22:05;;;;;;;6.50;1.08;;;19.10;99.90;;;;;;5077232;28;20028;-68
2022/03/14 03:24:32;;;;;;;9.07;0.90;;;19.00;99.90;;;;;;5072069;28;20112;-67
2022/03/14 03:26:59;;;;;;;3.65;0.50;;;19.10;99.90;;;;;;5081778;28;20438;-67
2022/03/14 03:29:26;;;;;;;5.38;1.83;;;19.10;99.90;;;;;;5090065;28;20029;-67
2022/03/14 03:31:54;;;;;;;8.38;3.70;;;19.20;99.90;;;;;;5080873;28;20020;-67
2022/03/14 03:34:21;;;;;;;3.92;1.42;;;19.30;99.90;;;;;;5090860;28;20425;-66
2022/03/14 03:36:48;;;;;;;2.70;0.57;;;19.30;99.90;;;;;;5079355;28;20055;-66
2022/03/14 03:39:16;;;;;;;5.80;0.60;;;19.40;99.90;;;;;;5074151;28;20029;-67
2022/03/14 03:41:43;;;;;;;4.13;1.15;;;19.40;99.90;;;;;;5074222;28;20036;-67
2022/03/14 03:44:10;;;;;;;4.90;0.63;;;19.40;99.90;;;;;;5072145;28;20484;-66
2022/03/14 03:46:38;;;;;;;5.32;1.00;;;19.40;99.90;;;;;;5071227;28;20018;-67
2022/03/14 03:49:05;;;;;;;6.85;0.68;;;19.40;99.90;;;;;;5066969;28;20028;-67
2022/03/14 03:51:32;;;;;;;5.10;1.10;;;19.40;99.90;;;;;;5075818;28;20091;-66
2022/03/14 03:53:59;;;;;;;5.10;0.60;;;19.40;99.90;;;;;;5070252;28;20033;-66
2022/03/14 03:56:26;;;;;;;6.88;0.70;;;19.50;99.90;;;;;;5072714;28;20029;-67
2022/03/14 03:58:54;;;;;;;3.80;0.57;;;19.70;99.90;;;;;;5068572;28;20055;-66
2022/03/14 04:01:22;;;;;;;4.18;0.98;;;19.90;99.90;;;;;;5067733;28;20024;-67
2022/03/14 04:03:54;;;;;;;5.75;0.77;;;19.80;99.90;;;;;;5078770;28;20021;-67
2022/03/14 04:06:29;;;;;;;2.72;0.68;;;19.80;99.90;;;;;;5070079;28;20028;-67
2022/03/14 04:08:57;;;;;;;3.63;0.70;;;19.90;99.90;;;;;;5067749;28;20071;-67
2022/03/14 04:11:24;;;;;;;4.43;0.82;;;20.10;99.90;;;;;;5066934;28;22235;-67
2022/03/14 04:13:53;;;;;;;4.00;0.70;;;20.00;99.90;;;;;;5081761;28;20028;-66
2022/03/14 04:16:22;;;;;;;6.78;0.60;;;20.10;99.90;;;;;;5068533;28;20114;-67
2022/03/14 04:18:49;;;;;;;4.28;0.85;;;20.20;99.90;;;;;;5077560;28;20051;-67
2022/03/14 04:21:17;;;;;;;4.65;0.50;;;20.30;99.90;;;;;;5080299;28;20056;-68
2022/03/14 04:23:45;;;;;;;4.60;0.60;;;20.40;99.90;;;;;;5078828;28;20037;-67
2022/03/14 04:26:13;;;;;;;3.47;0.70;;;20.40;99.90;;;;;;5073198;28;20036;-67
2022/03/14 04:28:41;;;;;;;4.43;1.20;;;20.40;99.90;;;;;;5078216;28;20100;-67
2022/03/14 04:31:09;;;;;;;4.25;1.00;;;20.50;99.90;;;;;;5074310;28;20017;-67
2022/03/14 04:33:37;;;;;;;3.30;0.68;;;20.80;99.90;;;;;;5078079;28;20029;-67
2022/03/14 04:36:06;;;;;;;5.75;1.15;;;20.80;99.90;;;;;;5072739;28;20048;-67
2022/03/14 04:38:33;;;;;;;7.90;1.25;;;20.90;99.90;;;;;;5076917;28;20050;-67
2022/03/14 04:41:00;;;;;;;7.00;1.48;;;21.00;99.90;;;;;;5075060;28;20036;-67
2022/03/14 04:43:28;;;;;;;7.72;0.85;;;21.10;99.90;;;;;;5079171;28;20024;-67
2022/03/14 04:45:55;;;;;;;12.63;1.25;;;21.20;99.90;;;;;;5079748;28;20008;-67
2022/03/14 04:48:23;;;;;;;8.32;1.73;;;21.50;99.90;;;;;;5080098;28;20025;-67
2022/03/14 04:50:51;;;;;;;7.55;1.25;;;21.60;99.90;;;;;;5074770;28;20029;-67
2022/03/14 04:53:18;;;;;;;7.43;1.38;;;21.60;99.90;;;;;;5079869;28;20053;-67
2022/03/14 04:55:46;;;;;;;8.98;1.58;;;21.70;99.90;;;;;;5082328;28;20036;-65
2022/03/14 04:58:14;;;;;;;5.85;1.45;;;21.70;99.90;;;;;;5081371;28;20053;-67
2022/03/14 05:00:42;;;;;;;9.23;1.50;;;21.80;99.90;;;;;;5079414;28;20012;-67
2022/03/14 05:03:10;;;;;;;9.00;1.80;;;22.00;99.90;;;;;;5079736;28;20029;-67
2022/03/14 05:05:37;;;;;;;7.25;1.10;;;21.80;99.90;;;;;;5080295;28;20029;-67
2022/03/14 05:08:06;;;;;;;10.57;1.33;;;21.60;99.90;;;;;;5082076;28;20628;-67
2022/03/14 05:10:34;;;;;;;8.88;1.88;;;21.70;99.90;;;;;;5080648;28;20028;-67
2022/03/14 05:13:02;;;;;;;4.57;1.33;;;21.70;99.90;;;;;;5078649;28;20546;-67
2022/03/14 05:15:32;;;;;;;6.57;0.80;;;21.50;99.90;;;;;;5076548;28;20046;-67
2022/03/14 05:18:01;;;;;;;6.43;0.95;;;21.60;99.90;;;;;;5084262;28;20466;-67
2022/03/14 05:20:28;;;;;;;6.35;0.80;;;21.50;99.90;;;;;;5097256;28;20070;-67
2022/03/14 05:22:56;;;;;;;9.45;1.00;;;21.50;99.90;;;;;;5082918;28;20005;-67
2022/03/14 05:25:23;;;;;;;8.60;1.30;;;21.50;99.90;;;;;;5079109;28;20052;-67
2022/03/14 05:27:54;;;;;;;6.88;0.70;;;21.50;99.90;;;;;;5083867;28;20088;-67
2022/03/14 05:30:22;;;;;;;6.78;1.38;;;21.60;99.90;;;;;;5081957;28;20046;-67
2022/03/14 05:32:49;;;;;;;5.68;1.05;;;21.80;99.90;;;;;;5089122;28;20049;-67
2022/03/14 05:35:17;;;;;;;4.70;1.20;;;21.80;99.90;;;;;;5076087;28;20044;-67
2022/03/14 05:37:46;;;;;;;5.22;0.88;;;21.90;99.90;;;;;;5085775;28;20427;-68
2022/03/14 05:40:17;;;;;;;3.72;0.60;;;21.90;99.90;;;;;;5079169;28;20035;-67
2022/03/14 05:42:48;;;;;;;6.88;0.70;;;21.90;99.90;;;;;;5087287;28;20009;-67
2022/03/14 05:45:17;;;;;;;6.00;0.88;;;22.00;99.90;;;;;;5085741;28;20075;-67
2022/03/14 05:47:44;;;;;;;6.18;0.98;;;21.90;99.90;;;;;;5076502;28;20093;-68
2022/03/14 05:50:12;;;;;;;4.25;0.95;;;22.00;99.90;;;;;;5076128;28;20061;-67
2022/03/14 05:52:40;;;;;;;5.60;0.80;;;22.10;99.90;;;;;;5077030;28;20071;-67
2022/03/14 05:55:08;;;;;;;6.30;0.70;;;22.00;99.90;;;;;;5073181;28;20009;-67
2022/03/14 05:57:36;;;;;;;5.60;1.60;;;21.90;99.90;;;;;;5075017;28;20029;-67
2022/03/14 06:00:08;;;;;;;6.47;0.60;;;21.90;99.90;;;;;;5086134;28;20035;-68
2022/03/14 06:02:36;;;;;;;6.40;0.88;;;21.90;99.90;;;;;;5076515;28;20056;-67
2022/03/14 06:05:03;;;;;;;4.50;0.50;;;21.90;99.90;;;;;;5074375;28;20037;-68
2022/03/14 06:07:31;;;;;;;4.82;0.90;;;21.90;99.90;;;;;;5076293;28;20047;-67
2022/03/14 06:09:58;;;;;;;5.35;1.40;;;21.90;99.90;;;;;;5085406;28;20025;-67
2022/03/14 06:12:30;;;;;;;4.95;1.05;;;21.90;99.90;;;;;;5076925;28;20069;-67
2022/03/14 06:14:59;;;;;;;7.28;1.10;;;22.00;99.90;;;;;;5077529;28;20033;-68
2022/03/14 06:17:26;;;;;;;5.43;1.08;;;21.90;99.90;;;;;;5082800;28;20083;-67
2022/03/14 06:19:54;;;;;;;8.45;0.90;;;21.90;99.90;;;;;;5076161;28;20090;-67
2022/03/14 06:22:23;;;;;;;6.60;0.70;;;21.80;99.90;;;;;;5074242;28;20059;-68
2022/03/14 06:24:51;;;;;;;9.32;0.95;;;21.80;99.90;;;;;;5088018;28;20032;-67
2022/03/14 06:27:21;;;;;;;6.97;0.98;;;21.70;99.90;;;;;;5088368;28;20013;-67
2022/03/14 06:29:49;;;;;;;7.50;1.33;;;21.70;99.90;;;;;;5076616;28;20059;-67
2022/03/14 06:32:17;;;;;;;8.18;1.10;;;21.70;99.90;;;;;;5078152;28;20028;-67
2022/03/14 06:34:44;;;;;;;5.90;0.75;;;21.60;99.90;;;;;;5083036;28;20020;-67
2022/03/14 06:37:12;;;;;;;6.03;0.75;;;21.60;99.90;;;;;;5079051;28;20028;-67
2022/03/14 06:39:40;;;;;;;5.95;0.82;;;21.50;99.90;;;;;;5080002;28;20001;-67
2022/03/14 06:42:09;;;;;;;4.05;0.90;;;21.50;99.90;;;;;;5079647;28;20047;-67
2022/03/14 06:44:40;;;;;;;6.82;0.65;;;21.50;99.90;;;;;;5085936;28;20013;-65
2022/03/14 06:47:09;;;;;;;6.00;0.88;;;21.60;99.90;;;;;;5086094;28;20024;-65
2022/03/14 06:49:39;;;;;;;4.50;0.65;;;21.60;99.90;;;;;;5077181;28;20035;-67
2022/03/14 06:52:07;;;;;;;7.13;1.00;;;21.60;99.90;;;;;;5079130;28;20037;-67
2022/03/14 06:54:35;;;;;;;6.30;0.70;;;21.60;99.90;;;;;;5077086;28;20029;-67
2022/03/14 06:57:02;;;;;;;7.25;0.85;;;21.60;99.90;;;;;;5077748;28;20048;-67
2022/03/14 06:59:30;;;;;;;6.00;1.02;;;21.70;99.90;;;;;;5085546;28;20036;-67
2022/03/14 07:01:57;;;;;;;5.97;1.13;;;21.60;99.90;;;;;;5083770;28;20019;-65
2022/03/14 07:04:24;;;;;;;5.35;0.80;;;21.60;99.90;;;;;;5084437;28;20020;-64
2022/03/14 07:06:51;;;;;;;4.63;0.90;;;21.60;99.90;;;;;;5086136;28;20036;-66
2022/03/14 07:09:19;;;;;;;9.90;1.85;;;21.60;99.90;;;;;;5083628;28;20009;-65
2022/03/14 07:11:51;;;;;;;7.30;1.33;;;21.50;99.90;;;;;;5086718;28;20008;-68
2022/03/14 07:14:22;;;;;;;5.82;1.13;;;21.50;99.90;;;;;;5099357;28;20024;-67
2022/03/14 07:16:50;;;;;;;5.53;0.82;;;21.50;99.90;;;;;;5087716;28;20048;-67
2022/03/14 07:19:18;;;;;;;6.90;1.38;;;21.40;99.90;;;;;;5090607;28;20016;-68
2022/03/14 07:21:45;;;;;;;8.15;1.73;;;21.40;99.90;;;;;;5088785;28;20013;-67
2022/03/14 07:24:12;;;;;;;6.97;1.20;;;21.40;99.90;;;;;;5091708;28;20021;-68
2022/03/14 07:26:40;;;;;;;3.63;1.20;;;21.30;99.90;;;;;;5086988;28;20068;-67
2022/03/14 07:29:07;;;;;;;4.97;0.70;;;21.10;99.90;;;;;;5087040;28;20033;-67
2022/03/14 07:31:37;;;;;;;9.55;1.10;;;21.10;99.90;;;;;;5102515;28;20076;-68
2022/03/14 07:34:05;;;;;;;5.40;1.00;;;21.20;99.90;;;;;;5095493;28;20020;-68
2022/03/14 07:39:55;;;;;;;7.72;1.17;;;21.20;99.90;;;;;;5091111;28;20170;-68
2022/03/14 07:42:22;;;;;;;10.38;2.03;;;21.20;99.90;;;;;;5102763;28;20083;-68
2022/03/14 07:44:49;;;;;;;7.00;0.57;;;21.00;99.90;;;;;;5086939;28;20056;-67
2022/03/14 07:47:17;;;;;;;4.43;0.80;;;21.00;99.90;;;;;;5082925;28;20013;-68
2022/03/14 07:49:45;;;;;;;3.25;0.75;;;21.00;99.90;;;;;;5088157;28;20115;-67
2022/03/14 07:52:13;;;;;;;7.78;1.27;;;21.00;99.90;;;;;;5086390;28;20066;-67
2022/03/14 07:54:40;;;;;;;6.40;1.23;;;21.10;99.90;;;;;;5100537;28;20024;-67
2022/03/14 07:57:08;;;;;;;5.50;0.98;;;21.10;99.90;;;;;;5090539;28;20095;-67
2022/03/14 07:59:35;;;;;;;6.55;0.85;;;21.00;99.90;;;;;;5086030;28;20012;-67
2022/03/14 08:02:02;;;;;;;7.30;0.75;;;21.00;99.90;;;;;;5095587;28;20025;-67
2022/03/14 08:04:30;;;;;;;5.65;1.00;;;21.00;99.90;;;;;;5093322;28;20009;-67
2022/03/14 08:06:58;;;;;;;6.82;1.20;;;20.90;99.90;;;;;;5087354;28;20042;-67
2022/03/14 08:09:25;;;;;;;5.05;0.85;;;20.90;99.90;;;;;;5085032;28;20049;-67
2022/03/14 08:11:53;;;;;;;6.60;1.33;;;20.90;99.90;;;;;;5079739;28;20258;-67
2022/03/14 08:14:20;;;;;;;7.70;1.00;;;20.90;99.90;;;;;;5094291;28;20033;-67
2022/03/14 08:16:48;;;;;;;7.30;1.40;;;20.90;99.90;;;;;;5088772;28;20024;-67
2022/03/14 08:19:16;;;;;;;7.03;1.15;;;20.90;99.90;;;;;;5089527;28;20013;-67
2022/03/14 08:21:45;;;;;;;5.55;1.23;;;20.90;99.90;;;;;;5079547;28;20088;-67
2022/03/14 08:24:13;;;;;;;8.60;1.98;;;20.90;99.90;;;;;;5086249;28;20475;-67
2022/03/14 08:26:42;;;;;;;6.50;0.93;;;20.90;99.90;;;;;;5084886;28;20017;-66
2022/03/14 08:29:10;;;;;;;5.90;1.30;;;20.90;99.90;;;;;;5081128;28;20089;-67
2022/03/14 08:31:38;;;;;;;8.38;1.70;;;20.90;99.90;;;;;;5080286;28;20029;-67
2022/03/14 08:34:06;;;;;;;8.00;1.23;;;20.80;99.90;;;;;;5076656;28;20029;-67
2022/03/14 08:36:36;;;;;;;6.60;1.13;;;20.70;99.90;;;;;;5084383;28;20044;-66
2022/03/14 08:39:04;;;;;;;9.48;1.48;;;20.70;99.90;;;;;;5087246;28;20016;-67
2022/03/14 08:41:34;;;;;;;4.65;1.08;;;20.60;99.90;;;;;;5093744;28;20028;-67
2022/03/14 08:44:02;;;;;;;5.57;1.30;;;20.50;99.90;;;;;;5086017;28;20013;-67
2022/03/14 08:46:29;;;;;;;7.15;1.20;;;20.60;99.90;;;;;;5089692;28;20017;-67
2022/03/14 08:48:57;;;;;;;9.27;1.92;;;20.60;99.90;;;;;;5079632;28;20024;-67
2022/03/14 08:51:25;;;;;;;7.70;1.40;;;20.60;99.90;;;;;;5087654;28;21149;-67
2022/03/14 08:53:54;;;;;;;6.90;1.75;;;20.50;99.90;;;;;;5078877;28;20055;-67
2022/03/14 08:56:22;;;;;;;6.85;1.73;;;20.50;99.90;;;;;;5093363;28;20035;-67
2022/03/14 08:58:49;;;;;;;5.82;1.88;;;20.50;99.90;;;;;;5092479;28;19997;-67
2022/03/14 09:01:16;;;;;;;9.27;2.83;;;20.50;99.90;;;;;;5096365;28;20008;-67
2022/03/14 09:03:44;;;;;;;7.32;2.13;;;20.40;99.90;;;;;;5099446;28;20032;-67
2022/03/14 09:06:11;;;;;;;5.47;1.80;;;20.40;99.90;;;;;;5095754;28;20138;-67
2022/03/14 09:08:39;;;;;;;5.47;1.80;;;20.40;99.90;;;;;;5079583;28;20009;-67
2022/03/14 09:11:06;;;;;;;7.30;1.45;;;20.40;99.90;;;;;;5081709;28;20047;-67
2022/03/14 09:13:34;;;;;;;5.90;1.60;;;20.40;99.90;;;;;;5081187;28;20005;-67
2022/03/14 09:16:01;;;;;;;7.43;1.27;;;20.40;99.90;;;;;;5090781;28;20034;-67
2022/03/14 09:18:31;;;;;;;10.18;1.85;;;20.40;99.90;;;;;;5098771;28;20055;-67
2022/03/14 09:20:59;;;;;;;5.53;1.95;;;20.40;99.90;;;;;;5098190;28;20046;-67
2022/03/14 09:23:26;;;;;;;7.05;2.15;;;20.40;99.90;;;;;;5096687;28;20012;-67
2022/03/14 09:25:55;;;;;;;6.60;1.30;;;20.40;99.90;;;;;;5097853;28;20029;-67
2022/03/14 09:28:22;;;;;;;8.45;1.48;;;20.40;99.90;;;;;;5096290;28;20024;-68
2022/03/14 09:30:50;;;;;;;6.38;0.80;;;20.40;99.90;;;;;;5093003;28;20017;-67
2022/03/14 09:33:17;;;;;;;7.47;1.30;;;20.40;99.90;;;;;;5096396;28;20022;-67
2022/03/14 09:35:45;;;;;;;7.57;1.25;;;20.30;99.90;;;;;;5093055;28;20021;-68
2022/03/14 09:38:17;;;;;;;6.30;1.15;;;20.30;99.90;;;;;;5077140;28;20029;-68
2022/03/14 09:40:50;;;;;;;9.63;2.00;;;20.30;99.90;;;;;;5087208;28;20035;-67
2022/03/14 09:43:18;;;;;;;7.20;1.92;;;20.30;99.90;;;;;;5098839;28;20039;-67
2022/03/14 09:45:50;;;;;;;7.15;1.10;;;20.30;99.90;;;;;;5081645;28;20033;-67
2022/03/14 09:48:18;;;;;;;8.45;1.25;;;20.30;99.90;;;;;;5088940;28;20104;-67
2022/03/14 09:50:46;;;;;;;5.55;1.17;;;20.30;99.90;;;;;;5084363;28;20036;-67
2022/03/14 09:53:17;;;;;;;5.95;1.33;;;20.30;99.90;;;;;;5097729;28;20120;-67
2022/03/14 09:55:47;;;;;;;5.30;1.17;;;20.30;99.90;;;;;;5095473;28;20036;-67
2022/03/14 09:58:22;;;;;;;6.43;1.58;;;20.30;99.90;;;;;;5088342;28;20025;-68
2022/03/14 10:00:50;;;;;;;6.55;0.68;;;20.30;99.90;;;;;;5095454;28;20397;-67
2022/03/14 10:03:19;;;;;;;6.03;0.80;;;20.30;99.90;;;;;;5094417;28;20011;-67
2022/03/14 10:05:48;;;;;;;6.15;0.73;;;20.20;99.90;;;;;;5087815;28;20028;-67
2022/03/14 10:08:16;;;;;;;11.23;1.35;;;20.30;99.90;;;;;;5092112;28;20023;-68
2022/03/14 10:10:45;;;;;;;5.78;0.80;;;20.30;99.90;;;;;;5083351;28;20024;-68
2022/03/14 10:13:14;;;;;;;7.10;1.00;;;20.30;99.90;;;;;;5074305;28;20021;-67
2022/03/14 10:15:43;;;;;;;6.25;1.02;;;20.20;99.90;;;;;;5085587;28;20028;-67
2022/03/14 10:18:21;;;;;;;6.13;0.90;;;20.20;99.90;;;;;;5093915;28;20055;-68
2022/03/14 10:21:05;;;;;;;7.80;0.90;;;20.20;99.90;;;;;;5073805;28;20036;-68
2022/03/14 10:23:45;;;;;;;10.20;1.33;;;20.30;99.90;;;;;;5079359;28;20021;-67
2022/03/14 10:26:19;;;;;;;7.78;0.85;;;20.30;99.90;;;;;;5074993;28;20025;-67
2022/03/14 10:28:50;;;;;;;9.93;1.42;;;20.30;99.90;;;;;;5074640;28;20025;-67
2022/03/14 10:31:35;;;;;;;9.45;1.17;;;20.30;99.90;;;;;;5094376;28;20581;-67
2022/03/14 10:34:14;;;;;;;4.95;1.30;;;20.20;99.90;;;;;;5091588;28;20024;-67
2022/03/14 10:36:46;;;;;;;6.88;0.80;;;20.20;99.90;;;;;;5094406;28;20036;-67
2022/03/14 10:39:28;;;;;;;9.73;1.20;;;20.20;99.90;;;;;;5085674;28;20049;-68
2022/03/14 10:42:07;;;;;;;8.55;1.58;;;20.20;99.90;;;;;;5076087;28;20040;-67
2022/03/14 10:44:37;;;;;;;7.68;1.02;;;20.20;99.90;;;;;;5078924;28;20028;-67
2022/03/14 10:47:07;;;;;;;5.70;1.02;;;20.20;99.90;;;;;;5085628;28;20012;-67
2022/03/14 10:49:36;;;;;;;8.98;1.08;;;20.20;99.90;;;;;;5087966;28;20036;-67
2022/03/14 10:52:17;;;;;;;7.50;0.88;;;20.10;99.90;;;;;;5075366;28;20056;-67
2022/03/14 10:54:45;;;;;;;7.85;0.90;;;20.20;99.90;;;;;;5080310;28;20165;-67
2022/03/14 10:57:18;;;;;;;13.05;1.65;;;20.10;99.90;;;;;;5076360;28;20551;-67
2022/03/14 10:59:48;;;;;;;6.68;0.95;;;20.10;99.90;;;;;;5083213;28;20035;-67
2022/03/14 11:02:21;;;;;;;9.40;1.00;;;20.20;99.90;;;;;;5079787;28;20044;-67
2022/03/14 11:05:01;;;;;;;5.88;1.40;;;20.20;99.90;;;;;;5095383;28;20021;-66
2022/03/14 11:07:33;;;;;;;5.45;0.90;;;20.10;99.90;;;;;;5085710;28;20056;-67
2022/03/14 11:10:07;;;;;;;8.05;1.15;;;20.20;99.90;;;;;;5077754;28;20076;-67
2022/03/14 11:12:34;;;;;;;7.05;1.23;;;20.10;99.90;;;;;;5092085;28;20024;-67
2022/03/14 11:15:06;;;;;;;7.10;1.27;;;20.10;99.90;;;;;;5076930;28;20059;-67
2022/03/14 11:17:35;;;;;;;8.00;1.20;;;20.10;99.90;;;;;;5088469;28;20025;-67
2022/03/14 11:20:03;;;;;;;9.60;1.40;;;20.10;99.90;;;;;;5084307;28;20037;-67
2022/03/14 11:22:31;;;;;;;9.05;0.90;;;20.10;99.90;;;;;;5078616;28;20025;-67
2022/03/14 11:25:01;;;;;;;11.93;1.05;;;20.10;99.90;;;;;;5086780;28;20040;-67
2022/03/14 11:27:36;;;;;;;6.32;1.05;;;20.20;99.90;;;;;;5089815;28;20021;-67
2022/03/14 11:30:10;;;;;;;7.82;1.80;;;20.30;99.90;;;;;;5076006;28;20005;-67
2022/03/14 11:32:38;;;;;;;;;;;20.40;99.90;;;;;;5077458;28;20384;-67
2022/03/14 11:35:08;;;;;;;10.02;1.83;;;20.40;99.90;;;;;;5084837;28;19912;-68
2022/03/14 11:37:36;;;;;;;6.97;1.20;;;20.40;99.90;;;;;;5077449;28;20033;-67
2022/03/14 11:40:07;;;;;;;9.60;0.75;;;20.50;99.90;;;;;;5085912;28;20032;-67
2022/03/14 11:42:34;;;;;;;5.78;1.15;;;20.60;99.90;;;;;;5077919;28;20031;-66
2022/03/14 11:45:05;;;;;;;6.32;1.35;;;20.60;99.90;;;;;;5083683;28;20554;-67
2022/03/14 11:47:33;;;;;;;7.28;0.98;;;20.60;99.90;;;;;;5089419;28;20040;-67
2022/03/14 11:50:03;;;;;;;6.00;0.88;;;20.50;99.90;;;;;;5088454;28;20113;-67
2022/03/14 11:52:44;;;;;;;5.18;0.80;;;20.50;99.90;;;;;;5084721;28;20041;-68
2022/03/14 11:55:23;;;;;;;7.60;0.90;;;20.50;99.90;;;;;;5080263;28;20021;-67
2022/03/14 11:57:52;;;;;;;5.15;1.00;;;20.50;99.90;;;;;;5087040;28;20066;-67
2022/03/14 12:00:27;;;;;;;6.07;1.17;;;20.60;99.90;;;;;;5080948;28;20017;-67
2022/03/14 12:03:05;;;;;;;7.20;1.27;;;20.60;99.90;;;;;;5078967;28;20017;-67
2022/03/14 12:05:32;;;;;;;10.90;1.38;;;20.50;99.90;;;;;;5082690;28;20020;-68
2022/03/14 12:08:01;;;;;;;6.72;0.63;;;20.50;99.90;;;;;;5088710;28;20119;-67
2022/03/14 12:10:33;;;;;;;4.70;0.90;;;20.50;99.90;;;;;;5078997;28;20033;-68
2022/03/14 12:13:04;;;;;;;6.43;1.30;;;20.50;99.90;;;;;;5080866;28;20021;-67
2022/03/14 12:15:38;;;;;;;10.32;0.95;;;20.60;99.90;;;;;;5078603;28;20033;-67
2022/03/14 12:18:26;;;;;;;10.10;1.92;;;20.60;99.90;;;;;;5084758;28;20039;-67
2022/03/14 12:21:03;;;;;;;10.23;1.33;;;20.60;99.90;;;;;;5083773;28;20017;-67
2022/03/14 12:23:35;;;;;;;10.63;1.38;;;20.60;99.90;;;;;;5077957;28;20033;-67
2022/03/14 12:26:17;;;;;;;12.10;1.88;;;20.60;99.90;;;;;;5082411;28;20021;-67
2022/03/14 12:28:45;;;;;;;8.48;1.40;;;20.50;99.90;;;;;;5081536;28;20167;-68
2022/03/14 12:31:16;;;;;;;8.95;0.98;;;20.50;99.90;;;;;;5088561;28;20044;-68
2022/03/14 12:33:48;;;;;;;8.82;1.20;;;20.50;99.90;;;;;;5082647;28;20064;-67
2022/03/14 12:36:24;;;;;;;9.90;1.00;;;20.40;99.90;;;;;;5084858;28;20021;-67
2022/03/14 12:39:18;;;;;;;7.45;1.25;;;20.40;99.90;;;;;;5083460;28;20048;-67
2022/03/14 12:41:46;;;;;;;6.38;0.90;;;20.40;99.90;;;;;;5084323;28;20035;-67
2022/03/14 12:44:27;;;;;;;4.22;0.50;;;20.30;99.90;;;;;;5083499;28;20017;-67
2022/03/14 12:47:01;;;;;;;10.55;1.35;;;20.30;99.90;;;;;;5079218;28;20024;-67
2022/03/14 12:49:42;;;;;;;11.55;1.52;;;20.30;99.90;;;;;;5077106;28;20029;-67
2022/03/14 12:52:19;;;;;;;7.75;0.93;;;20.30;99.90;;;;;;5079382;28;20013;-67
2022/03/14 12:54:48;;;;;;;5.40;0.80;;;20.30;99.90;;;;;;5082220;28;20500;-67
2022/03/14 12:57:21;;;;;;;8.35;1.70;;;20.20;99.90;;;;;;5086765;28;20084;-68
2022/03/14 12:59:57;;;;;;;10.07;0.98;;;20.30;99.90;;;;;;5086406;28;20044;-68